Terminal Aerodrome Forecast
Issued by NWS

Home | Current Version | Previous Version | Text Only | Print | Product List | Glossary On
Versions: 1 2 3 4 5 6 7 8 9 10 11 12 13 14 15
000
FTAK31 PAJN 172320
TAFAKT
TAF
PAKT 172320Z 1800/1824 13007KT P6SM VCSH BKN035 OVC045
      TEMPO 1800/1804 5SM -SHRA BR BKN025
     FM180500 14018G25KT P6SM -RA OVC035 WS020/15035KT
     FM180900 14025G35KT P6SM -RA SCT015 OVC025 WS020/15045KT
     FM181300 14025G30KT 6SM -RA BR BKN015 OVC025
     FM181500 14015G25KT 4SM -RA BR OVC020
     FM181800 14010KT 4SM -RA BR OVC015
      AMD LTD TO CLD VIS AND WIND 1806/1815=

USA.gov is the U.S. government's official web portal to all federal, state and local government web resources and services.